LiveATC.Net - Listen to live air traffic control over the Internet!


ICAO: KSPK  IATA: SPK   Airport: Spanish Fork Municipal Airport/Woodhouse Field
City: Spanish Fork   State/Province: Utah
Country: United States   Continent: North America
KSPK METAR Weather: KSPK 210855Z AUTO 14010KT 10SM CLR 08/01 A3027 RMK AO2
KSPK Flight Activity (FlightAware)
KSPK Airport Info   (iFlightPlanner)
KSPK VFR Sectional Chart   (iFlightPlanner) 
KSPK IFR Low Chart   (iFlightPlanner) 

KSPK CTAF
Feed Status: UP   Listeners: 0
Listen in your browser - HTML5 player (in browser, HTML5)
Click here to listen with your own player (launches your MP3 player)
Archive Access: KSPK CTAF
FacilityFrequency
Spanish Fork CTAF122.900

NOTICE

Unauthorized use prohibited. See LiveATC.net Terms of Service


Airport/ARTCC Code
Frequency Search
(e.g., 124.400, 128.75)
Site-wide search
 


Browse Feeds
Top 50 Feeds
HF Oceanic Feeds
Coverage Map
Bad Weather Areas

LiveATC FAQ
Offer LiveATC feed
Contact LiveATC.net
Press Inquiries

LiveATC on iPhone
LiveATC on Android

Windows Phone
Windows 8/10

LiveATC Mobile
(Mobile browser)

ATC Audio Archives
Interesting Recordings

LiveATC Forums


Home Page
About LiveATC.net
Make a Donation
Terms of Use
Privacy Policy

Canadian Air Freqs

AIRMETs/SIGMETs

FAA Airport Status
NAS Status
Arrival Demand


Server Software By:
Icecast.org
Liquidsoap